Time;durP1;ratioP1;P1;durP2;ratioP2;P2;SDS_P1;SDS_P2;PMS_P1;PMS_P2;Temp;Humidity;BMP_temperature;BMP_pressure;BME280_temperature;BME280_humidity;BME280_pressure;Samples;Min_cycle;Max_cycle;Signal;HPM_P1;HPM_P2
2024/02/08 00:02:15;;;;;;;216.37;57.13;;;;;;;;;;4994744;28;20228;-44
2024/02/08 00:04:41;;;;;;;218.10;58.93;;;;;;;;;;4994636;28;20419;-45
2024/02/08 00:07:07;;;;;;;219.77;60.00;;;;;;;;;;4995077;28;20412;-45
2024/02/08 00:09:33;;;;;;;217.50;58.30;;;;;;;;;;4995474;28;20416;-44
2024/02/08 00:11:59;;;;;;;219.10;59.73;;;;;;;;;;4994799;28;20200;-44
2024/02/08 00:14:25;;;;;;;218.27;59.70;;;;;;;;;;4995298;28;20910;-45
2024/02/08 00:16:52;;;;;;;219.18;60.10;;;;;;;;;;4995579;28;20426;-44
2024/02/08 00:19:18;;;;;;;216.32;58.75;;;;;;;;;;4991747;28;20551;-44
2024/02/08 00:21:44;;;;;;;216.37;58.47;;;;;;;;;;4994345;28;20192;-45
2024/02/08 00:24:10;;;;;;;217.55;58.20;;;;;;;;;;4995500;28;20928;-45
2024/02/08 00:26:36;;;;;;;218.68;59.47;;;;;;;;;;4995415;28;20227;-44
2024/02/08 00:29:02;;;;;;;219.10;60.33;;;;;;;;;;4995362;28;20173;-43
2024/02/08 00:31:28;;;;;;;215.47;57.80;;;;;;;;;;4994702;28;20428;-44
2024/02/08 00:33:54;;;;;;;218.70;58.50;;;;;;;;;;4995567;28;20424;-45
2024/02/08 00:36:21;;;;;;;215.73;57.57;;;;;;;;;;4995211;28;20538;-44
2024/02/08 00:38:47;;;;;;;217.38;59.65;;;;;;;;;;4988675;28;20417;-44
2024/02/08 00:41:13;;;;;;;217.82;59.60;;;;;;;;;;4993530;28;20248;-44
2024/02/08 00:43:39;;;;;;;216.93;58.40;;;;;;;;;;4994863;28;20524;-45
2024/02/08 00:46:08;;;;;;;219.32;60.72;;;;;;;;;;4995028;28;20782;-45
2024/02/08 00:48:34;;;;;;;219.02;59.47;;;;;;;;;;4986631;28;20169;-46
2024/02/08 00:51:00;;;;;;;216.95;58.83;;;;;;;;;;4990331;28;20191;-46
2024/02/08 00:53:26;;;;;;;217.40;58.30;;;;;;;;;;4994982;28;20215;-44
2024/02/08 00:55:52;;;;;;;217.93;59.00;;;;;;;;;;4994898;28;20188;-45
2024/02/08 00:58:18;;;;;;;216.60;58.20;;;;;;;;;;4994718;28;20420;-44
2024/02/08 01:00:44;;;;;;;222.23;63.77;;;;;;;;;;4993822;28;20468;-45
2024/02/08 01:03:10;;;;;;;215.03;57.70;;;;;;;;;;4995391;28;20832;-44
2024/02/08 01:05:36;;;;;;;218.97;59.40;;;;;;;;;;4994273;28;20400;-45
2024/02/08 01:08:02;;;;;;;217.00;58.15;;;;;;;;;;4995066;28;20430;-44
2024/02/08 01:10:28;;;;;;;221.95;63.35;;;;;;;;;;4993438;28;20728;-43
2024/02/08 01:12:55;;;;;;;215.55;58.17;;;;;;;;;;4993262;28;20201;-45
2024/02/08 01:15:21;;;;;;;219.90;59.50;;;;;;;;;;4994700;28;20185;-45
2024/02/08 01:17:51;;;;;;;217.88;58.35;;;;;;;;;;4994793;28;20177;-45
2024/02/08 01:20:22;;;;;;;219.27;59.10;;;;;;;;;;4988091;28;20200;-45
2024/02/08 01:22:48;;;;;;;217.70;57.95;;;;;;;;;;4993784;28;20200;-44
2024/02/08 01:25:14;;;;;;;218.82;59.88;;;;;;;;;;4993246;28;20251;-44
2024/02/08 01:27:40;;;;;;;220.70;59.58;;;;;;;;;;4994577;28;20177;-44
2024/02/08 01:30:08;;;;;;;219.10;59.05;;;;;;;;;;4994105;28;20256;-44
2024/02/08 01:32:34;;;;;;;219.82;60.17;;;;;;;;;;4993951;28;20201;-44
2024/02/08 01:35:00;;;;;;;217.98;58.78;;;;;;;;;;4998276;28;20192;-44
2024/02/08 01:37:26;;;;;;;220.07;60.60;;;;;;;;;;4998090;28;20189;-44
2024/02/08 01:39:52;;;;;;;218.83;60.00;;;;;;;;;;4996560;28;20455;-44
2024/02/08 01:42:18;;;;;;;220.27;59.67;;;;;;;;;;4997193;28;20463;-44
2024/02/08 01:44:47;;;;;;;220.10;59.67;;;;;;;;;;4998187;28;20447;-44
2024/02/08 01:47:13;;;;;;;219.82;60.28;;;;;;;;;;4998028;28;20181;-44
2024/02/08 01:49:40;;;;;;;222.93;62.53;;;;;;;;;;4998017;28;20179;-44
2024/02/08 01:52:10;;;;;;;217.75;58.80;;;;;;;;;;4997324;28;20692;-44
2024/02/08 01:54:43;;;;;;;219.80;60.50;;;;;;;;;;4998655;28;20683;-45
2024/02/08 01:57:10;;;;;;;219.52;60.50;;;;;;;;;;4997792;28;20189;-46
2024/02/08 01:59:37;;;;;;;218.40;58.13;;;;;;;;;;4998106;28;20201;-46
2024/02/08 02:02:07;;;;;;;220.63;60.75;;;;;;;;;;4996013;28;20235;-45
2024/02/08 02:04:34;;;;;;;219.52;60.22;;;;;;;;;;4989775;28;20223;-43
2024/02/08 02:07:02;;;;;;;218.98;58.40;;;;;;;;;;4997947;28;20196;-44
2024/02/08 02:09:30;;;;;;;216.20;57.78;;;;;;;;;;4997898;28;20184;-44
2024/02/08 02:12:04;;;;;;;218.32;58.60;;;;;;;;;;4996526;28;20239;-44
2024/02/08 02:14:31;;;;;;;217.15;58.72;;;;;;;;;;4997551;28;20256;-46
2024/02/08 02:17:12;;;;;;;218.20;59.55;;;;;;;;;;4997699;28;20236;-44
2024/02/08 02:19:39;;;;;;;217.80;58.00;;;;;;;;;;4995639;28;20680;-44
2024/02/08 02:22:07;;;;;;;218.85;59.03;;;;;;;;;;4996776;28;20660;-44
2024/02/08 02:24:36;;;;;;;218.15;58.85;;;;;;;;;;4989833;28;20185;-44
2024/02/08 02:27:02;;;;;;;217.70;58.47;;;;;;;;;;4997954;28;20200;-46
2024/02/08 02:29:28;;;;;;;218.52;59.00;;;;;;;;;;4997253;28;20262;-46
2024/02/08 02:31:54;;;;;;;221.30;61.20;;;;;;;;;;4996787;28;20205;-46
2024/02/08 02:34:25;;;;;;;219.68;59.80;;;;;;;;;;4996931;28;20707;-46
2024/02/08 02:36:53;;;;;;;217.95;59.35;;;;;;;;;;4997114;28;20176;-44
2024/02/08 02:39:25;;;;;;;218.52;59.83;;;;;;;;;;4997671;28;20173;-43
2024/02/08 02:41:51;;;;;;;218.85;60.45;;;;;;;;;;4996350;28;20193;-44
2024/02/08 02:44:17;;;;;;;218.25;59.22;;;;;;;;;;4996650;28;20192;-43
2024/02/08 02:46:43;;;;;;;216.43;58.17;;;;;;;;;;4997331;28;20263;-46
2024/02/08 02:49:09;;;;;;;217.50;58.63;;;;;;;;;;4996944;28;20483;-45
2024/02/08 02:51:36;;;;;;;219.83;59.90;;;;;;;;;;4995962;28;20440;-45
2024/02/08 02:54:02;;;;;;;218.25;58.58;;;;;;;;;;4996805;28;20471;-46
2024/02/08 02:56:28;;;;;;;218.20;58.60;;;;;;;;;;4996626;28;20169;-45
2024/02/08 02:58:57;;;;;;;219.17;59.40;;;;;;;;;;4996094;28;20200;-44
2024/02/08 03:01:27;;;;;;;216.50;58.50;;;;;;;;;;4990891;28;20503;-44
2024/02/08 03:03:53;;;;;;;216.07;58.55;;;;;;;;;;4996327;28;20181;-43
2024/02/08 03:06:19;;;;;;;219.30;60.03;;;;;;;;;;4996393;28;20188;-45
2024/02/08 03:08:46;;;;;;;219.07;59.47;;;;;;;;;;4996488;28;20872;-45
2024/02/08 03:11:15;;;;;;;218.32;59.97;;;;;;;;;;4995484;28;20511;-44
2024/02/08 03:13:42;;;;;;;220.20;59.85;;;;;;;;;;4996903;28;20244;-45
2024/02/08 03:16:14;;;;;;;217.23;57.65;;;;;;;;;;4996028;28;20692;-44
2024/02/08 03:18:45;;;;;;;214.00;56.42;;;;;;;;;;4996318;28;20177;-44
2024/02/08 03:21:17;;;;;;;217.88;58.75;;;;;;;;;;4995771;28;20215;-44
2024/02/08 03:23:45;;;;;;;216.25;58.63;;;;;;;;;;4994557;28;20223;-44
2024/02/08 03:26:11;;;;;;;215.98;57.03;;;;;;;;;;4996414;28;20595;-46
2024/02/08 03:28:37;;;;;;;214.33;57.00;;;;;;;;;;4995918;28;20173;-44
2024/02/08 03:31:03;;;;;;;217.17;57.73;;;;;;;;;;4995380;28;20453;-44
2024/02/08 03:33:29;;;;;;;215.85;56.80;;;;;;;;;;4996171;28;20424;-44
2024/02/08 03:35:55;;;;;;;217.75;58.65;;;;;;;;;;4995591;28;20201;-43
2024/02/08 03:38:23;;;;;;;215.33;56.90;;;;;;;;;;4994457;28;20666;-44
2024/02/08 03:40:49;;;;;;;216.90;58.38;;;;;;;;;;4995048;28;20566;-44
2024/02/08 03:43:15;;;;;;;216.07;58.27;;;;;;;;;;4995807;28;20671;-43
2024/02/08 03:45:46;;;;;;;213.27;57.17;;;;;;;;;;4995595;28;20416;-46
2024/02/08 03:48:14;;;;;;;216.95;59.40;;;;;;;;;;4995740;28;20916;-44
2024/02/08 03:50:40;;;;;;;223.40;65.13;;;;;;;;;;4993453;28;20172;-45
2024/02/08 03:53:12;;;;;;;215.13;56.73;;;;;;;;;;4995378;28;20577;-44
2024/02/08 03:55:38;;;;;;;213.23;55.60;;;;;;;;;;4994680;28;20412;-45
2024/02/08 03:58:06;;;;;;;214.87;56.57;;;;;;;;;;4995346;28;20264;-44
2024/02/08 04:00:33;;;;;;;224.32;66.03;;;;;;;;;;4993689;28;20514;-46
2024/02/08 04:03:10;;;;;;;215.63;58.50;;;;;;;;;;4994822;28;20248;-44
2024/02/08 04:05:37;;;;;;;217.30;59.03;;;;;;;;;;4987712;28;20533;-44
2024/02/08 04:08:22;;;;;;;220.20;60.03;;;;;;;;;;4994556;28;20200;-44
2024/02/08 04:54:34;;;;;;;215.32;56.17;;;;;;;;;;4988827;28;20231;-44
2024/02/08 04:57:00;;;;;;;217.60;57.10;;;;;;;;;;4993744;28;20272;-44
2024/02/08 04:59:26;;;;;;;216.13;56.87;;;;;;;;;;4993681;28;20424;-44
2024/02/08 05:01:55;;;;;;;216.80;58.05;;;;;;;;;;4993097;28;20924;-44
2024/02/08 05:04:22;;;;;;;215.52;56.22;;;;;;;;;;4994869;28;20177;-46
2024/02/08 05:06:49;;;;;;;216.05;56.83;;;;;;;;;;4994446;28;20202;-46
2024/02/08 05:09:19;;;;;;;216.85;56.85;;;;;;;;;;4995500;28;20196;-44
2024/02/08 05:11:45;;;;;;;215.80;55.05;;;;;;;;;;4997094;28;20213;-45
2024/02/08 05:14:11;;;;;;;218.60;59.10;;;;;;;;;;4997475;28;20185;-44
2024/02/08 05:16:39;;;;;;;218.37;57.77;;;;;;;;;;4998020;28;20181;-45
2024/02/08 05:19:05;;;;;;;216.00;56.75;;;;;;;;;;4998104;28;20416;-44
2024/02/08 05:21:31;;;;;;;216.95;56.95;;;;;;;;;;4997053;28;20201;-45
2024/02/08 05:24:01;;;;;;;216.57;56.80;;;;;;;;;;4996698;28;20197;-44
2024/02/08 05:26:31;;;;;;;218.90;59.15;;;;;;;;;;4996099;28;20166;-45
2024/02/08 05:28:57;;;;;;;218.38;57.13;;;;;;;;;;4996765;28;20173;-45
2024/02/08 05:34:11;;;;;;;217.65;58.38;;;;;;;;;;4996296;28;20550;-44
2024/02/08 05:36:39;;;;;;;217.10;57.58;;;;;;;;;;4996471;28;20180;-45
2024/02/08 05:39:06;;;;;;;216.75;57.80;;;;;;;;;;4995839;28;20551;-44
2024/02/08 05:41:33;;;;;;;216.57;57.88;;;;;;;;;;4995402;28;20223;-46
2024/02/08 05:44:05;;;;;;;216.85;58.92;;;;;;;;;;4996165;28;20197;-44
2024/02/08 05:46:37;;;;;;;214.38;57.30;;;;;;;;;;4996098;28;20699;-44
2024/02/08 05:49:04;;;;;;;217.07;57.83;;;;;;;;;;4995924;28;20177;-45
2024/02/08 05:51:30;;;;;;;217.98;58.78;;;;;;;;;;4995126;28;20185;-44
2024/02/08 05:53:56;;;;;;;216.45;55.67;;;;;;;;;;4993853;28;20184;-46
2024/02/08 05:56:22;;;;;;;215.57;57.30;;;;;;;;;;4994936;28;20653;-45
2024/02/08 05:58:51;;;;;;;217.67;58.27;;;;;;;;;;4995389;28;20763;-44
2024/02/08 06:01:19;;;;;;;217.32;57.53;;;;;;;;;;4992583;28;20470;-43
2024/02/08 06:03:49;;;;;;;218.35;57.63;;;;;;;;;;4989741;28;20181;-42
2024/02/08 06:06:33;;;;;;;215.02;57.05;;;;;;;;;;4993915;28;20180;-44
2024/02/08 06:09:08;;;;;;;214.18;57.10;;;;;;;;;;4992763;28;20296;-43
2024/02/08 06:11:37;;;;;;;214.20;56.65;;;;;;;;;;4985216;28;21073;-43
2024/02/08 06:14:12;;;;;;;213.85;56.72;;;;;;;;;;4993367;28;20597;-44
2024/02/08 06:16:47;;;;;;;218.05;57.92;;;;;;;;;;4986284;28;20168;-42
2024/02/08 06:19:21;;;;;;;216.63;57.30;;;;;;;;;;4993003;28;20255;-43
2024/02/08 06:21:57;;;;;;;219.57;59.38;;;;;;;;;;4991446;28;20196;-44
2024/02/08 06:26:56;;;;;;;216.10;56.88;;;;;;;;;;4995257;28;20177;-43
2024/02/08 06:29:46;;;;;;;220.13;60.40;;;;;;;;;;4994531;28;20215;-44
2024/02/08 06:35:06;;;;;;;217.18;57.40;;;;;;;;;;4994951;28;20715;-44
2024/02/08 06:37:45;;;;;;;215.15;56.47;;;;;;;;;;4986789;28;20165;-45
2024/02/08 06:40:50;;;;;;;220.00;59.92;;;;;;;;;;4994538;28;20231;-43
2024/02/08 07:37:42;;;;;;;217.25;56.72;;;;;;;;;;4991153;28;20191;-44
2024/02/08 07:40:23;;;;;;;216.93;56.97;;;;;;;;;;4992693;28;20209;-43
2024/02/08 07:42:52;;;;;;;216.65;56.40;;;;;;;;;;4990700;28;20212;-43
2024/02/08 07:45:21;;;;;;;214.75;57.25;;;;;;;;;;4992194;28;20246;-43
2024/02/08 07:47:57;;;;;;;216.63;58.90;;;;;;;;;;4987142;28;20165;-43
2024/02/08 07:50:25;;;;;;;216.15;58.92;;;;;;;;;;4992257;28;20209;-43
2024/02/08 07:52:58;;;;;;;219.77;60.90;;;;;;;;;;4990786;28;21000;-43
2024/02/08 07:55:57;;;;;;;218.30;58.30;;;;;;;;;;4992062;28;20207;-43
2024/02/08 07:58:18;;;;;;;220.25;60.67;;;;;;;;;;4987678;28;20707;-43
2024/02/08 08:00:44;;;;;;;223.35;61.92;;;;;;;;;;4985516;28;20242;-43
2024/02/08 08:03:15;;;;;;;219.63;59.95;;;;;;;;;;4992516;28;20203;-43
2024/02/08 08:05:42;;;;;;;219.10;58.28;;;;;;;;;;4990999;28;20184;-43
2024/02/08 08:08:36;;;;;;;218.25;58.40;;;;;;;;;;4992743;28;20185;-43
2024/02/08 08:11:15;;;;;;;218.63;57.35;;;;;;;;;;4991865;28;20181;-43
2024/02/08 08:14:06;;;;;;;218.52;59.08;;;;;;;;;;4982754;28;20594;-44
2024/02/08 08:19:07;;;;;;;219.15;57.47;;;;;;;;;;4992636;28;20169;-43
2024/02/08 08:21:58;;;;;;;219.98;59.33;;;;;;;;;;4984107;28;20648;-43
2024/02/08 08:24:25;;;;;;;220.20;59.40;;;;;;;;;;4990742;28;20686;-43
2024/02/08 08:27:06;;;;;;;222.70;60.50;;;;;;;;;;4992518;28;20197;-44
2024/02/08 08:29:42;;;;;;;225.57;62.17;;;;;;;;;;4990854;28;20183;-44
2024/02/08 08:32:58;;;;;;;223.13;61.22;;;;;;;;;;4991384;28;20196;-43
2024/02/08 08:37:44;;;;;;;220.07;58.53;;;;;;;;;;4988417;28;20231;-43
2024/02/08 08:40:37;;;;;;;222.95;60.15;;;;;;;;;;4992047;28;20255;-43
2024/02/08 08:43:25;;;;;;;223.60;60.83;;;;;;;;;;4992124;28;20209;-44
2024/02/08 08:45:59;;;;;;;223.32;61.50;;;;;;;;;;4983429;28;20182;-42
2024/02/08 08:48:29;;;;;;;225.80;62.53;;;;;;;;;;4990557;28;20187;-43
2024/02/08 08:50:56;;;;;;;225.85;62.65;;;;;;;;;;4984195;28;20184;-43
2024/02/08 08:53:27;;;;;;;226.32;62.58;;;;;;;;;;4993693;28;20550;-43
2024/02/08 08:55:55;;;;;;;224.93;61.72;;;;;;;;;;5002467;28;20675;-43
2024/02/08 08:58:27;;;;;;;227.98;64.05;;;;;;;;;;4987670;28;20179;-44
2024/02/08 09:01:04;;;;;;;226.73;62.50;;;;;;;;;;4991529;28;20351;-44
2024/02/08 09:03:30;;;;;;;232.77;66.78;;;;;;;;;;4991785;28;20188;-44
2024/02/08 09:05:59;;;;;;;225.33;60.73;;;;;;;;;;4985857;28;20649;-43
2024/02/08 09:08:33;;;;;;;230.73;65.65;;;;;;;;;;4988277;28;20414;-43
2024/02/08 09:11:00;;;;;;;227.15;63.65;;;;;;;;;;4991333;28;20208;-43
2024/02/08 09:13:26;;;;;;;226.75;62.92;;;;;;;;;;4989183;28;20196;-44
2024/02/08 09:15:55;;;;;;;228.93;64.70;;;;;;;;;;4989290;28;20657;-43
2024/02/08 09:18:46;;;;;;;226.85;63.20;;;;;;;;;;4992248;28;20213;-43
2024/02/08 09:21:10;;;;;;;226.93;62.17;;;;;;;;;;4987016;28;20622;-43
2024/02/08 09:23:36;;;;;;;228.15;65.18;;;;;;;;;;4991534;28;20177;-42
2024/02/08 09:26:05;;;;;;;226.90;63.40;;;;;;;;;;4991930;28;20179;-43
2024/02/08 09:28:42;;;;;;;229.82;64.63;;;;;;;;;;4991791;28;20222;-44
2024/02/08 09:31:16;;;;;;;228.60;64.78;;;;;;;;;;4991049;28;20183;-43
2024/02/08 09:33:48;;;;;;;233.57;67.85;;;;;;;;;;4991670;28;20257;-43
2024/02/08 09:36:15;;;;;;;229.35;64.55;;;;;;;;;;4991726;28;20181;-43
2024/02/08 09:38:45;;;;;;;229.30;63.60;;;;;;;;;;4991749;28;20174;-43
2024/02/08 09:41:15;;;;;;;228.93;64.25;;;;;;;;;;4991109;28;20200;-43
2024/02/08 09:43:48;;;;;;;228.00;63.45;;;;;;;;;;4991611;28;20175;-43
2024/02/08 09:49:02;;;;;;;224.45;61.15;;;;;;;;;;4977230;28;20217;-43
2024/02/08 09:51:35;;;;;;;228.02;64.85;;;;;;;;;;4973527;28;20202;-43
2024/02/08 09:54:15;;;;;;;228.82;63.33;;;;;;;;;;4987584;28;20177;-44
2024/02/08 09:56:49;;;;;;;227.43;62.55;;;;;;;;;;4994222;28;20251;-44
2024/02/08 09:59:20;;;;;;;228.48;64.05;;;;;;;;;;4995296;28;20227;-44
2024/02/08 10:01:49;;;;;;;226.50;62.58;;;;;;;;;;4994129;28;20213;-43
2024/02/08 10:04:16;;;;;;;227.55;63.00;;;;;;;;;;4995076;28;20228;-44
2024/02/08 10:06:46;;;;;;;225.57;61.53;;;;;;;;;;4995002;28;20165;-43
2024/02/08 10:12:06;;;;;;;223.90;59.42;;;;;;;;;;4974733;28;20208;-43
2024/02/08 10:14:33;;;;;;;226.63;61.17;;;;;;;;;;4976739;28;20174;-44
2024/02/08 10:17:24;;;;;;;228.40;62.90;;;;;;;;;;4992508;28;20189;-43
2024/02/08 10:20:32;;;;;;;224.18;60.45;;;;;;;;;;4994478;28;20212;-43
2024/02/08 10:22:58;;;;;;;226.88;62.58;;;;;;;;;;4993117;28;20296;-43
2024/02/08 10:28:09;;;;;;;231.07;65.60;;;;;;;;;;4991647;28;20311;-43
2024/02/08 10:30:37;;;;;;;238.35;68.25;;;;;;;;;;4994008;28;20196;-43
2024/02/08 10:33:14;;;;;;;230.50;64.32;;;;;;;;;;4994664;28;20290;-45
2024/02/08 10:35:40;;;;;;;227.85;62.10;;;;;;;;;;4994327;28;20194;-44
2024/02/08 10:38:18;;;;;;;231.20;64.57;;;;;;;;;;4987801;28;20570;-45
2024/02/08 10:40:54;;;;;;;236.25;67.90;;;;;;;;;;4993011;28;20295;-45
2024/02/08 10:43:24;;;;;;;230.65;63.67;;;;;;;;;;4994371;28;20170;-45
2024/02/08 10:45:54;;;;;;;228.00;61.08;;;;;;;;;;4994314;28;20634;-44
2024/02/08 10:48:21;;;;;;;229.32;61.83;;;;;;;;;;4994300;28;20713;-43
2024/02/08 10:50:49;;;;;;;233.48;64.40;;;;;;;;;;4993649;28;20618;-44
2024/02/08 10:53:18;;;;;;;230.07;62.80;;;;;;;;;;4994226;28;20220;-44
2024/02/08 10:55:52;;;;;;;230.05;63.65;;;;;;;;;;4994035;28;20178;-42
2024/02/08 10:58:51;;;;;;;231.95;64.22;;;;;;;;;;4992702;28;20230;-43
2024/02/08 11:04:01;;;;;;;227.02;62.03;;;;;;;;;;4993044;28;20187;-43
2024/02/08 11:06:29;;;;;;;225.38;59.55;;;;;;;;;;4992819;28;20193;-43
2024/02/08 11:11:44;;;;;;;228.18;62.03;;;;;;;;;;4985075;28;20339;-43
2024/02/08 11:14:12;;;;;;;224.13;58.00;;;;;;;;;;4993807;28;20683;-42
2024/02/08 11:16:41;;;;;;;227.15;60.95;;;;;;;;;;4993805;28;20176;-43
2024/02/08 11:19:16;;;;;;;226.27;60.33;;;;;;;;;;4990653;28;20597;-43
2024/02/08 11:21:43;;;;;;;230.75;63.42;;;;;;;;;;4992814;28;20211;-43
2024/02/08 11:24:13;;;;;;;228.43;61.22;;;;;;;;;;4993589;28;20195;-44
2024/02/08 11:26:49;;;;;;;226.65;61.13;;;;;;;;;;4992249;28;20175;-43
2024/02/08 11:29:21;;;;;;;229.68;62.42;;;;;;;;;;4993677;28;20641;-43
2024/02/08 11:31:47;;;;;;;230.15;63.15;;;;;;;;;;4989751;28;20203;-43
2024/02/08 11:34:14;;;;;;;229.07;62.30;;;;;;;;;;4993210;28;20183;-43
2024/02/08 11:36:42;;;;;;;230.13;61.13;;;;;;;;;;4993289;28;20417;-43
2024/02/08 11:39:27;;;;;;;229.85;62.13;;;;;;;;;;4993295;28;20183;-44
2024/02/08 11:42:05;;;;;;;229.93;63.47;;;;;;;;;;4992416;28;20285;-44
2024/02/08 11:44:43;;;;;;;229.48;61.40;;;;;;;;;;4988129;28;20703;-44
2024/02/08 11:47:19;;;;;;;229.40;62.03;;;;;;;;;;4990242;28;20174;-44
2024/02/08 11:49:54;;;;;;;248.85;79.18;;;;;;;;;;4987680;28;20731;-43
2024/02/08 11:52:23;;;;;;;228.32;61.28;;;;;;;;;;4976476;28;20281;-43
2024/02/08 11:55:06;;;;;;;227.82;61.53;;;;;;;;;;4988802;28;20755;-43
2024/02/08 11:57:40;;;;;;;226.88;61.38;;;;;;;;;;4992894;28;20261;-43
2024/02/08 12:00:15;;;;;;;226.98;61.92;;;;;;;;;;4993070;28;20677;-43
2024/02/08 12:02:57;;;;;;;226.95;60.50;;;;;;;;;;4992237;28;20284;-43
2024/02/08 12:05:24;;;;;;;229.13;63.28;;;;;;;;;;4992965;28;20552;-43
2024/02/08 12:07:50;;;;;;;228.90;62.38;;;;;;;;;;4992852;28;20165;-43
2024/02/08 12:10:17;;;;;;;231.75;63.72;;;;;;;;;;4986720;28;20212;-43
2024/02/08 12:12:46;;;;;;;226.18;59.15;;;;;;;;;;4983529;28;20197;-44
2024/02/08 12:15:13;;;;;;;228.65;62.10;;;;;;;;;;4988634;28;20189;-43
2024/02/08 12:17:40;;;;;;;225.60;58.90;;;;;;;;;;4990899;28;20187;-43
2024/02/08 12:20:09;;;;;;;226.13;59.05;;;;;;;;;;4991987;28;20204;-44
2024/02/08 12:22:35;;;;;;;229.27;63.00;;;;;;;;;;4991524;28;20188;-43
2024/02/08 12:25:02;;;;;;;225.50;58.80;;;;;;;;;;4992560;28;20182;-43
2024/02/08 12:27:29;;;;;;;225.07;58.60;;;;;;;;;;4992631;28;20212;-44
2024/02/08 12:29:56;;;;;;;225.18;58.05;;;;;;;;;;4992759;28;20183;-43
2024/02/08 12:32:27;;;;;;;227.00;58.13;;;;;;;;;;4991602;28;20243;-44
2024/02/08 12:34:54;;;;;;;226.55;58.60;;;;;;;;;;4992787;28;20271;-43
2024/02/08 12:37:22;;;;;;;228.30;61.72;;;;;;;;;;4991388;28;20674;-43
2024/02/08 12:39:49;;;;;;;228.68;61.83;;;;;;;;;;4992364;28;20223;-44
2024/02/08 12:42:18;;;;;;;227.85;59.13;;;;;;;;;;4991590;28;20202;-43
2024/02/08 12:44:50;;;;;;;227.77;59.40;;;;;;;;;;4992256;28;20538;-43
2024/02/08 12:47:17;;;;;;;226.07;59.30;;;;;;;;;;4992368;28;20288;-43
2024/02/08 12:49:45;;;;;;;227.95;58.88;;;;;;;;;;4992359;28;20174;-43
2024/02/08 12:52:13;;;;;;;228.32;59.42;;;;;;;;;;4991496;28;20665;-43
2024/02/08 12:54:39;;;;;;;229.10;60.50;;;;;;;;;;4992825;28;20199;-43
2024/02/08 12:57:12;;;;;;;227.60;60.05;;;;;;;;;;4992219;28;20212;-43
2024/02/08 12:59:39;;;;;;;228.77;59.63;;;;;;;;;;4991261;28;20194;-45
2024/02/08 13:02:25;;;;;;;226.82;58.50;;;;;;;;;;4991396;28;20261;-43
2024/02/08 13:04:54;;;;;;;224.93;59.00;;;;;;;;;;4988119;28;20176;-44
2024/02/08 13:07:25;;;;;;;227.10;59.25;;;;;;;;;;4992230;28;20184;-43
2024/02/08 13:10:00;;;;;;;226.35;57.45;;;;;;;;;;4992119;28;20263;-44
2024/02/08 13:12:27;;;;;;;225.75;57.72;;;;;;;;;;4991379;28;20204;-43
2024/02/08 13:14:56;;;;;;;227.02;59.08;;;;;;;;;;4992126;28;20190;-42
2024/02/08 13:17:25;;;;;;;227.73;59.90;;;;;;;;;;4991960;28;20174;-43
2024/02/08 13:19:55;;;;;;;225.35;57.53;;;;;;;;;;4992029;28;20190;-43
2024/02/08 13:22:24;;;;;;;228.23;60.33;;;;;;;;;;4991178;28;20717;-43
2024/02/08 13:24:53;;;;;;;227.35;60.13;;;;;;;;;;4980918;28;20247;-43
2024/02/08 13:27:24;;;;;;;229.38;59.95;;;;;;;;;;4978426;28;20747;-43
2024/02/08 13:29:53;;;;;;;226.82;59.63;;;;;;;;;;4994178;28;20173;-44
2024/02/08 13:32:24;;;;;;;227.00;59.45;;;;;;;;;;4994870;28;20197;-43
2024/02/08 13:34:51;;;;;;;227.45;62.28;;;;;;;;;;4984669;28;20201;-43
2024/02/08 13:37:17;;;;;;;226.05;60.28;;;;;;;;;;4975918;28;20190;-44
2024/02/08 13:39:43;;;;;;;227.67;61.27;;;;;;;;;;4975841;28;20189;-44
2024/02/08 13:42:09;;;;;;;224.97;57.53;;;;;;;;;;4991485;28;20427;-45
2024/02/08 13:44:38;;;;;;;224.95;58.60;;;;;;;;;;4986702;28;20419;-44
2024/02/08 13:47:04;;;;;;;225.50;59.40;;;;;;;;;;4994299;28;20266;-44
2024/02/08 13:49:33;;;;;;;227.75;63.00;;;;;;;;;;4995260;28;20205;-45
2024/02/08 13:52:00;;;;;;;224.98;59.90;;;;;;;;;;4994518;28;20255;-44
2024/02/08 13:54:27;;;;;;;225.82;57.92;;;;;;;;;;4995123;28;20207;-44
2024/02/08 13:56:55;;;;;;;226.63;58.67;;;;;;;;;;4995092;28;20603;-44
2024/02/08 13:59:21;;;;;;;224.25;56.97;;;;;;;;;;4995109;28;20205;-44
2024/02/08 14:01:47;;;;;;;224.82;55.97;;;;;;;;;;4994205;28;20689;-44
2024/02/08 14:04:20;;;;;;;223.93;56.20;;;;;;;;;;4995058;28;20255;-44
2024/02/08 14:06:51;;;;;;;222.45;54.67;;;;;;;;;;4995000;28;20177;-45
2024/02/08 14:09:20;;;;;;;225.65;57.90;;;;;;;;;;4993443;28;20172;-44
2024/02/08 14:11:52;;;;;;;224.27;55.80;;;;;;;;;;4993397;28;20201;-44
2024/02/08 14:14:19;;;;;;;227.57;59.10;;;;;;;;;;4994548;28;20269;-44
2024/02/08 14:16:52;;;;;;;222.98;56.72;;;;;;;;;;4991531;28;20645;-44
2024/02/08 14:19:22;;;;;;;221.90;56.10;;;;;;;;;;4994660;28;20620;-44
2024/02/08 14:21:51;;;;;;;221.57;55.10;;;;;;;;;;4994123;28;20203;-43
2024/02/08 14:24:18;;;;;;;224.88;58.03;;;;;;;;;;4994490;28;20184;-44
2024/02/08 14:26:44;;;;;;;221.57;55.47;;;;;;;;;;4994612;28;20192;-44
2024/02/08 14:29:10;;;;;;;222.97;55.10;;;;;;;;;;4994336;28;20634;-44
2024/02/08 14:31:36;;;;;;;222.80;55.08;;;;;;;;;;4993835;28;20425;-44
2024/02/08 14:34:02;;;;;;;222.77;55.72;;;;;;;;;;4990561;28;20182;-44
2024/02/08 14:36:29;;;;;;;222.30;55.42;;;;;;;;;;4994347;28;20169;-44
2024/02/08 14:38:55;;;;;;;221.82;55.17;;;;;;;;;;4994587;28;20464;-44
2024/02/08 14:41:34;;;;;;;223.48;56.63;;;;;;;;;;4993333;28;20627;-44
2024/02/08 14:44:05;;;;;;;221.50;55.97;;;;;;;;;;4994392;28;20165;-44
2024/02/08 14:46:32;;;;;;;222.25;55.53;;;;;;;;;;4986418;28;20169;-44
2024/02/08 14:49:03;;;;;;;222.18;55.83;;;;;;;;;;4994271;28;20176;-44
2024/02/08 14:51:29;;;;;;;220.82;54.67;;;;;;;;;;4993561;28;20284;-44
2024/02/08 14:53:58;;;;;;;221.50;56.20;;;;;;;;;;4994243;28;20174;-44
2024/02/08 14:56:25;;;;;;;220.27;54.45;;;;;;;;;;4994227;28;20625;-44
2024/02/08 14:59:09;;;;;;;221.65;56.22;;;;;;;;;;4994164;28;20177;-44
2024/02/08 15:01:39;;;;;;;220.18;55.20;;;;;;;;;;4985882;28;20228;-44
2024/02/08 15:04:21;;;;;;;220.50;54.55;;;;;;;;;;4994020;28;20174;-44
2024/02/08 15:07:06;;;;;;;221.90;56.03;;;;;;;;;;4983518;28;20185;-44
2024/02/08 15:14:43;;;;;;;222.85;57.17;;;;;;;;;;4993881;28;20268;-44
2024/02/08 15:17:18;;;;;;;222.27;55.75;;;;;;;;;;4993659;28;20687;-44
2024/02/08 15:19:48;;;;;;;219.13;54.00;;;;;;;;;;4988341;28;20183;-44
2024/02/08 15:24:57;;;;;;;218.75;54.17;;;;;;;;;;4991887;28;20199;-44
2024/02/08 15:27:31;;;;;;;224.43;57.63;;;;;;;;;;4992795;28;20654;-44
2024/02/08 15:30:10;;;;;;;222.32;54.88;;;;;;;;;;4981019;28;20173;-44
2024/02/08 15:32:46;;;;;;;219.90;53.78;;;;;;;;;;4972804;28;20208;-44
2024/02/08 15:35:23;;;;;;;220.75;54.80;;;;;;;;;;4980822;28;20183;-44
2024/02/08 15:38:18;;;;;;;221.80;55.60;;;;;;;;;;4985486;28;20196;-44
2024/02/08 15:40:39;;;;;;;226.40;61.45;;;;;;;;;;4973227;28;20210;-44
2024/02/08 15:43:10;;;;;;;218.15;53.95;;;;;;;;;;4973709;28;20225;-45
2024/02/08 15:45:41;;;;;;;220.35;54.47;;;;;;;;;;4973830;28;20180;-44
2024/02/08 15:48:11;;;;;;;217.10;53.00;;;;;;;;;;4973650;28;20165;-44
2024/02/08 15:50:42;;;;;;;225.93;59.17;;;;;;;;;;4992256;28;20255;-44
2024/02/08 15:53:17;;;;;;;218.93;53.65;;;;;;;;;;4992539;28;20206;-44
2024/02/08 15:55:49;;;;;;;218.45;53.70;;;;;;;;;;4977888;28;20187;-44
2024/02/08 15:58:29;;;;;;;218.82;53.70;;;;;;;;;;4974061;28;20193;-44
2024/02/08 16:01:09;;;;;;;218.18;53.38;;;;;;;;;;4984801;28;20200;-44
2024/02/08 16:06:42;;;;;;;219.13;53.67;;;;;;;;;;4982617;28;20296;-44
2024/02/08 16:09:25;;;;;;;217.82;53.40;;;;;;;;;;4983530;28;20203;-44
2024/02/08 16:11:56;;;;;;;217.60;53.55;;;;;;;;;;4992136;28;20200;-44
2024/02/08 16:14:26;;;;;;;218.82;54.83;;;;;;;;;;4985221;28;20281;-44
2024/02/08 16:17:07;;;;;;;219.50;54.80;;;;;;;;;;4978263;28;20259;-44
2024/02/08 16:19:43;;;;;;;217.98;54.17;;;;;;;;;;4992701;28;20235;-44
2024/02/08 16:22:19;;;;;;;218.98;54.45;;;;;;;;;;4991868;28;20220;-44
2024/02/08 16:24:49;;;;;;;219.88;54.75;;;;;;;;;;4992612;28;20191;-44
2024/02/08 16:27:15;;;;;;;217.68;53.40;;;;;;;;;;4992658;28;20177;-44
2024/02/08 16:29:56;;;;;;;218.55;53.67;;;;;;;;;;4992363;28;20558;-44
2024/02/08 16:32:29;;;;;;;218.50;53.75;;;;;;;;;;4991810;28;20614;-44
2024/02/08 16:35:00;;;;;;;217.52;53.97;;;;;;;;;;4992491;28;20164;-44
2024/02/08 16:37:41;;;;;;;220.32;54.33;;;;;;;;;;4992479;28;20699;-44
2024/02/08 16:40:15;;;;;;;219.20;53.65;;;;;;;;;;4980228;28;20264;-44